Fountain Prairie, Arkansas
Current Conditions -  °F | °C
As of 5:35 PM on Friday 19 Dec 2014 (Local Time) from KBQP Reporting Station
Overcast Overcast  
Wind Chill: 46°   Ceiling: 700
Heat Index: 46°   Visibility: 7mi
Dew Point: 45°   Wind: 3mph
Humidity: 97%   Direction: 360°N
Pressure: 30.18"   Gusts: NA
Location:  33.1762°N, 91.7595°W
Report Text: KBQP 192335Z AUTO 36003KT 7SM OVC007 08/07 A3018 RMK AO2 T00750070
Loading
Personal Weather Stations






























Interactive Weather Map New forecast layout! Learn more

10-Day Weather Forecast

Advertisements
Track Severe Weather on mobile